»·PEaware :: DCM2156 KSBA-PHLI

DCM2156 :: KSBA-PHLI

FLIGHT INFORMATION

Flight Status: Arrived
Operator: Unknown
More flights by this operator :: More flights under this callsign
Pilot: Henderson P. (1210)
Aircraft: AIRBUS A319
(A319)
More flights by this aircraft type
Origin: KSBA Santa Barbara Mun
United States
Destination: PHLI Lihue
United States
More flights between these airports :: More routes between these airports
Route: HABUT DINTY DUETS R576 DENNS HNL V12 KEOLA V16 NAPUA
File this flight plan on PilotEdge
Remarks:
Altitude:
(Current/Filed)
38,000ft
Speed:
(Current/Filed)
461kts
Departed: 01-Nov-18 11:48 AM
Arrived: 01-Nov-18 05:03 PM
Distance/Time
Traveled:
2202nm/5:14
Distance/Time
To Go:
Arrived

Flight Plot

Page will automatically refresh every two minutes.

Flight plan parsing failed; only flown route is shown


Map Options




Map Legend


Flown Route
Filed Route
Departure Airport
Arrival Airport
Navaid (VOR, NDB)
Fix

Horizontal Profiles

Position Reports

Time Latitude Longitude Heading Altitude Ground
Speed
01-Nov-18 11:14 34.422099 -119.836333 255 24ft 0kts
01-Nov-18 11:16 34.422099 -119.836333 255 24ft 0kts
01-Nov-18 11:16 34.422099 -119.836333 255 24ft 0kts
01-Nov-18 11:18 34.422099 -119.836333 255 24ft 0kts
01-Nov-18 11:18 34.422099 -119.836333 255 24ft 0kts
01-Nov-18 11:19 34.422099 -119.836333 255 24ft 0kts
01-Nov-18 11:20 34.422099 -119.836333 255 24ft 0kts
01-Nov-18 11:21 34.422099 -119.836333 255 24ft 0kts
01-Nov-18 11:22 34.422099 -119.836333 255 24ft 0kts
01-Nov-18 11:23 34.422099 -119.836333 255 24ft 0kts
01-Nov-18 11:24 34.422099 -119.836333 255 24ft 0kts
01-Nov-18 11:25 34.422099 -119.836333 255 24ft 0kts
01-Nov-18 11:26 34.422099 -119.836333 255 24ft 0kts
01-Nov-18 11:27 34.422099 -119.836333 255 24ft 0kts
01-Nov-18 11:28 34.422099 -119.836333 255 24ft 0kts
01-Nov-18 11:29 34.422099 -119.836333 255 24ft 0kts
01-Nov-18 11:30 34.422099 -119.836333 255 24ft 0kts
01-Nov-18 11:31 34.422099 -119.836333 255 24ft 0kts
01-Nov-18 11:32 34.422099 -119.836333 255 24ft 0kts
01-Nov-18 11:33 34.422099 -119.836333 255 24ft 0kts
01-Nov-18 11:34 34.422099 -119.836333 255 24ft 0kts
01-Nov-18 11:35 34.422099 -119.836333 255 24ft 0kts
01-Nov-18 11:36 34.422099 -119.836333 255 24ft 0kts
01-Nov-18 11:37 34.422099 -119.836333 255 24ft 0kts
01-Nov-18 11:38 34.422099 -119.836333 255 24ft 0kts
01-Nov-18 11:39 34.422099 -119.836333 255 24ft 0kts
01-Nov-18 11:40 34.422099 -119.836333 255 24ft 0kts
01-Nov-18 11:41 34.422099 -119.836333 255 24ft 0kts
01-Nov-18 11:42 34.422099 -119.836333 255 24ft 0kts
01-Nov-18 11:43 34.422099 -119.836333 255 24ft 0kts
01-Nov-18 11:44 34.422099 -119.836333 255 24ft 0kts
01-Nov-18 11:45 34.422712 -119.836861 273 24ft 3kts
01-Nov-18 11:46 34.424428 -119.837627 345 24ft 12kts
01-Nov-18 11:47 34.426729 -119.837351 88 24ft 9kts
01-Nov-18 11:48 34.426975 -119.834577 5 24ft 0kts
01-Nov-18 11:49 34.427907 -119.835166 273 24ft 13kts
01-Nov-18 11:50 34.426491 -119.877888 267 1671ft 172kts
01-Nov-18 11:51 34.424719 -119.947447 267 3003ft 220kts
01-Nov-18 11:52 34.421828 -120.029125 267 3522ft 271kts
01-Nov-18 11:53 34.418403 -120.123641 267 7031ft 292kts
01-Nov-18 11:54 34.414466 -120.223128 267 8011ft 296kts
01-Nov-18 11:55 34.410077 -120.322704 264 8066ft 296kts
01-Nov-18 11:56 34.385291 -120.393403 244 10004ft 303kts
01-Nov-18 11:57 34.345092 -120.493709 247 11789ft 371kts
01-Nov-18 11:58 34.295892 -120.616159 247 13013ft 433kts
01-Nov-18 11:59 34.252128 -120.724978 247 14935ft 442kts
01-Nov-18 12:00 34.197303 -120.860975 248 16962ft 456kts
01-Nov-18 12:01 34.140801 -121.000337 248 18754ft 468kts
01-Nov-18 12:02 34.082869 -121.142912 248 20372ft 479kts
01-Nov-18 12:03 34.023449 -121.288285 248 21832ft 488kts
01-Nov-18 12:04 33.962625 -121.436537 247 23124ft 497kts
01-Nov-18 12:05 33.900818 -121.586516 247 24233ft 505kts
01-Nov-18 12:06 33.837873 -121.738634 247 25237ft 509kts
01-Nov-18 12:07 33.774985 -121.889820 247 26785ft 502kts
01-Nov-18 12:08 33.712734 -122.038921 246 28583ft 494kts
01-Nov-18 12:09 33.651392 -122.185109 246 30528ft 487kts
01-Nov-18 12:10 33.606958 -122.290795 246 31665ft 486kts
01-Nov-18 12:11 33.546246 -122.434490 245 33343ft 479kts
01-Nov-18 12:12 33.486094 -122.578313 250 34243ft 485kts
01-Nov-18 12:14 33.452393 -122.732486 260 35355ft 478kts
01-Nov-18 12:15 33.420338 -122.886760 259 36246ft 478kts
01-Nov-18 12:16 33.388307 -123.041239 259 36983ft 477kts
01-Nov-18 12:17 33.355966 -123.195020 259 37613ft 476kts
01-Nov-18 12:18 33.323609 -123.348490 259 38102ft 476kts
01-Nov-18 12:19 33.290863 -123.502500 259 38170ft 477kts
01-Nov-18 12:20 33.258137 -123.655764 258 38171ft 476kts
01-Nov-18 12:21 33.225150 -123.808812 258 38187ft 476kts
01-Nov-18 12:22 33.192032 -123.961845 258 38180ft 476kts
01-Nov-18 12:23 33.158584 -124.115113 258 38210ft 476kts
01-Nov-18 12:24 33.125173 -124.267595 257 38204ft 476kts
01-Nov-18 12:25 33.091371 -124.420515 257 38181ft 477kts
01-Nov-18 12:26 33.057233 -124.574041 257 38177ft 478kts
01-Nov-18 12:27 33.022929 -124.727045 257 38175ft 478kts
01-Nov-18 12:28 32.988521 -124.879702 256 38177ft 478kts
01-Nov-18 12:29 32.953806 -125.032584 256 38178ft 478kts
01-Nov-18 12:30 32.918888 -125.185595 256 38180ft 478kts
01-Nov-18 12:31 32.883892 -125.338095 256 38195ft 478kts
01-Nov-18 12:32 32.848658 -125.490386 256 38200ft 478kts
01-Nov-18 12:33 32.813257 -125.642725 255 38219ft 478kts
01-Nov-18 12:34 32.777540 -125.795334 255 38211ft 479kts
01-Nov-18 12:35 32.741801 -125.947406 255 38211ft 479kts
01-Nov-18 12:36 32.705777 -126.099540 254 38214ft 478kts
01-Nov-18 12:37 32.669475 -126.251972 254 38211ft 478kts
01-Nov-18 12:38 32.633181 -126.403609 254 38208ft 478kts
01-Nov-18 12:39 32.596610 -126.555354 254 38210ft 478kts
01-Nov-18 12:40 32.559982 -126.706700 254 38211ft 477kts
01-Nov-18 12:41 32.523186 -126.857440 253 38210ft 477kts
01-Nov-18 12:42 32.486194 -127.008531 253 38209ft 477kts
01-Nov-18 12:43 32.449017 -127.159416 253 38188ft 476kts
01-Nov-18 12:44 32.411847 -127.309358 253 38186ft 476kts
01-Nov-18 12:45 32.374320 -127.459883 252 38160ft 476kts
01-Nov-18 12:46 32.336693 -127.610068 252 38166ft 476kts
01-Nov-18 12:47 32.298932 -127.759833 252 38150ft 476kts
01-Nov-18 12:48 32.261029 -127.909367 252 38169ft 476kts
01-Nov-18 12:49 32.222758 -128.059640 251 38173ft 476kts
01-Nov-18 12:50 32.184394 -128.209314 251 38174ft 476kts
01-Nov-18 12:51 32.145937 -128.358518 251 38171ft 476kts
01-Nov-18 12:52 32.107283 -128.507860 251 38167ft 475kts
01-Nov-18 12:53 32.068546 -128.656619 251 38167ft 474kts
01-Nov-18 12:54 32.029696 -128.805025 251 38168ft 473kts
01-Nov-18 12:55 31.990644 -128.953372 250 38163ft 473kts
01-Nov-18 12:56 31.951561 -129.101185 250 38094ft 474kts
01-Nov-18 12:57 31.912259 -129.249071 250 38093ft 473kts
01-Nov-18 12:58 31.872856 -129.396358 249 38095ft 472kts
01-Nov-18 12:59 31.833194 -129.544010 249 38100ft 472kts
01-Nov-18 13:00 31.793549 -129.690712 249 38090ft 471kts
01-Nov-18 13:01 31.753752 -129.837448 249 38093ft 471kts
01-Nov-18 13:02 31.713720 -129.984094 249 38088ft 471kts
01-Nov-18 13:03 31.673582 -130.130443 249 38088ft 471kts
01-Nov-18 13:04 31.633282 -130.276760 248 38101ft 470kts
01-Nov-18 13:05 31.592762 -130.422977 248 38093ft 471kts
01-Nov-18 13:06 31.552241 -130.568477 248 38094ft 471kts
01-Nov-18 13:07 31.511519 -130.714152 248 38102ft 470kts
01-Nov-18 13:08 31.470494 -130.859989 248 38098ft 471kts
01-Nov-18 13:09 31.429369 -131.005673 247 38109ft 470kts
01-Nov-18 13:10 31.388251 -131.150563 247 38130ft 470kts
01-Nov-18 13:11 31.346768 -131.295876 247 38135ft 470kts
01-Nov-18 13:12 31.305348 -131.440477 247 38137ft 470kts
01-Nov-18 13:13 31.263538 -131.585653 247 38129ft 470kts
01-Nov-18 13:14 31.221772 -131.729876 247 38129ft 469kts
01-Nov-18 13:15 31.179816 -131.874291 247 38131ft 469kts
01-Nov-18 13:16 31.137602 -132.018737 246 38127ft 469kts
01-Nov-18 13:17 31.095532 -132.162084 246 38130ft 467kts
01-Nov-18 13:18 31.053164 -132.305696 246 38113ft 467kts
01-Nov-18 13:19 31.010756 -132.448761 246 38079ft 467kts
01-Nov-18 13:20 30.968050 -132.592081 246 38057ft 467kts
01-Nov-18 13:21 30.925348 -132.734866 246 38064ft 466kts
01-Nov-18 13:22 30.882466 -132.877421 246 38053ft 466kts
01-Nov-18 13:23 30.839498 -133.019787 246 38064ft 465kts
01-Nov-18 13:24 30.796597 -133.161260 246 38077ft 465kts
01-Nov-18 13:24 30.760552 -133.279615 246 38085ft 464kts
01-Nov-18 13:26 30.710124 -133.444482 246 38096ft 463kts
01-Nov-18 13:26 30.674038 -133.561934 246 38106ft 463kts
01-Nov-18 13:28 30.623369 -133.726070 246 38115ft 462kts
01-Nov-18 13:28 30.587195 -133.842785 246 38121ft 462kts
01-Nov-18 13:30 30.536209 -134.006541 246 38106ft 461kts
01-Nov-18 13:30 30.499748 -134.123180 246 38103ft 461kts
01-Nov-18 13:32 30.448658 -134.285936 246 38101ft 461kts
01-Nov-18 13:32 30.412027 -134.402022 246 38102ft 461kts
01-Nov-18 13:33 30.367974 -134.541283 245 38102ft 461kts
01-Nov-18 13:34 30.323623 -134.680656 245 38101ft 460kts
01-Nov-18 13:35 30.279209 -134.819766 245 38086ft 461kts
01-Nov-18 13:36 30.234669 -134.958781 245 38096ft 461kts
01-Nov-18 13:37 30.189836 -135.097947 245 38100ft 461kts
01-Nov-18 13:38 30.144983 -135.236720 245 38094ft 461kts
01-Nov-18 13:39 30.099898 -135.375491 245 38094ft 461kts
01-Nov-18 13:40 30.054848 -135.513733 245 38108ft 461kts
01-Nov-18 13:41 30.009449 -135.652431 245 38109ft 461kts
01-Nov-18 13:42 29.964066 -135.790463 245 38111ft 460kts
01-Nov-18 13:43 29.918638 -135.928110 244 38080ft 460kts
01-Nov-18 13:44 29.872938 -136.065937 244 38051ft 460kts
01-Nov-18 13:45 29.827077 -136.203847 244 38024ft 460kts
01-Nov-18 13:46 29.781198 -136.341158 244 38019ft 460kts
01-Nov-18 13:47 29.735116 -136.478566 244 38030ft 461kts
01-Nov-18 13:48 29.688793 -136.616084 244 38103ft 461kts
01-Nov-18 13:49 29.642135 -136.753980 244 38105ft 462kts
01-Nov-18 13:50 29.595554 -136.891231 244 38106ft 461kts
01-Nov-18 13:51 29.548699 -137.028709 244 38081ft 462kts
01-Nov-18 13:52 29.501746 -137.165992 244 38055ft 462kts
01-Nov-18 13:53 29.454658 -137.303102 244 38037ft 462kts
01-Nov-18 13:54 29.407203 -137.440643 244 38021ft 463kts
01-Nov-18 13:55 29.359686 -137.577910 244 38015ft 463kts
01-Nov-18 13:56 29.312076 -137.714908 244 38016ft 463kts
01-Nov-18 13:57 29.264233 -137.852036 244 38014ft 464kts
01-Nov-18 13:58 29.216212 -137.989125 244 38014ft 464kts
01-Nov-18 13:59 29.167810 -138.126873 244 38020ft 467kts
01-Nov-18 14:00 29.119183 -138.264567 244 38100ft 468kts
01-Nov-18 14:01 29.070315 -138.402614 244 38099ft 467kts
01-Nov-18 14:02 29.021542 -138.539636 244 38086ft 467kts
01-Nov-18 14:03 28.972501 -138.677052 244 38046ft 467kts
01-Nov-18 14:04 28.923133 -138.814738 244 38014ft 467kts
01-Nov-18 14:05 28.873945 -138.951614 244 38009ft 467kts
01-Nov-18 14:06 28.824428 -139.088776 244 38016ft 467kts
01-Nov-18 14:07 28.774707 -139.225856 244 38053ft 468kts
01-Nov-18 14:08 28.724708 -139.363309 244 38105ft 469kts
01-Nov-18 14:09 28.674652 -139.500236 244 38104ft 469kts
01-Nov-18 14:10 28.624149 -139.637575 244 38103ft 469kts
01-Nov-18 14:11 28.573592 -139.774577 244 38118ft 469kts
01-Nov-18 14:12 28.522890 -139.911501 244 38111ft 470kts
01-Nov-18 14:13 28.472035 -140.048231 245 38109ft 470kts
01-Nov-18 14:14 28.420917 -140.185317 245 38109ft 470kts
01-Nov-18 14:15 28.369776 -140.321857 245 38108ft 470kts
01-Nov-18 14:16 28.318258 -140.458911 245 38107ft 470kts
01-Nov-18 14:17 28.267012 -140.594878 245 38105ft 470kts
01-Nov-18 14:18 28.215403 -140.731261 245 38104ft 470kts
01-Nov-18 14:19 28.163779 -140.867109 245 38113ft 469kts
01-Nov-18 14:20 28.112032 -141.002888 245 38113ft 469kts
01-Nov-18 14:21 28.059994 -141.138861 245 38114ft 469kts
01-Nov-18 14:22 28.008110 -141.274070 245 38115ft 469kts
01-Nov-18 14:23 27.955745 -141.409889 246 38112ft 470kts
01-Nov-18 14:24 27.903371 -141.545425 246 38086ft 471kts
01-Nov-18 14:26 27.851035 -141.680288 246 38117ft 470kts
01-Nov-18 14:27 27.798282 -141.815796 246 38117ft 470kts
01-Nov-18 14:28 27.745502 -141.950848 246 38116ft 470kts
01-Nov-18 14:29 27.692505 -142.085986 246 38114ft 470kts
01-Nov-18 14:30 27.639510 -142.220690 246 38114ft 470kts
01-Nov-18 14:31 27.586455 -142.355159 246 38114ft 469kts
01-Nov-18 14:32 27.533332 -142.489277 246 38113ft 468kts
01-Nov-18 14:33 27.480305 -142.622764 246 38114ft 466kts
01-Nov-18 14:34 27.427206 -142.755882 246 38113ft 465kts
01-Nov-18 14:35 27.374161 -142.888429 246 38114ft 464kts
01-Nov-18 14:36 27.320983 -143.020927 245 38114ft 463kts
01-Nov-18 14:37 27.267974 -143.152578 245 38113ft 462kts
01-Nov-18 14:38 27.214859 -143.284032 245 38113ft 461kts
01-Nov-18 14:39 27.161645 -143.415333 245 38114ft 461kts
01-Nov-18 14:40 27.108581 -143.545762 245 38115ft 460kts
01-Nov-18 14:41 27.055148 -143.676693 245 38113ft 460kts
01-Nov-18 14:42 27.001995 -143.806550 245 38105ft 459kts
01-Nov-18 14:43 26.948496 -143.936801 245 38107ft 459kts
01-Nov-18 14:44 26.895094 -144.066459 245 38110ft 457kts
01-Nov-18 14:45 26.841943 -144.195158 245 38110ft 452kts
01-Nov-18 14:46 26.789082 -144.322654 245 38040ft 452kts
01-Nov-18 14:47 26.736010 -144.450284 245 38022ft 452kts
01-Nov-18 14:48 26.682778 -144.577919 245 38022ft 451kts
01-Nov-18 14:49 26.629684 -144.704817 245 38039ft 450kts
01-Nov-18 14:50 26.576609 -144.831313 245 38067ft 448kts
01-Nov-18 14:51 26.523714 -144.956969 245 38108ft 447kts
01-Nov-18 14:52 26.470700 -145.082504 244 38106ft 446kts
01-Nov-18 14:53 26.417816 -145.207447 244 38108ft 444kts
01-Nov-18 14:54 26.364988 -145.331796 244 38109ft 442kts
01-Nov-18 14:55 26.312534 -145.454990 244 38098ft 440kts
01-Nov-18 14:56 26.260001 -145.577947 244 38074ft 438kts
01-Nov-18 14:57 26.207623 -145.700247 244 38040ft 437kts
01-Nov-18 14:58 26.155258 -145.822054 244 38034ft 436kts
01-Nov-18 14:59 26.102760 -145.943932 244 38081ft 436kts
01-Nov-18 15:00 26.050246 -146.065477 244 38126ft 436kts
01-Nov-18 15:01 25.997660 -146.186833 244 38126ft 436kts
01-Nov-18 15:02 25.944796 -146.308756 244 38125ft 436kts
01-Nov-18 15:03 25.892035 -146.430035 244 38123ft 436kts
01-Nov-18 15:04 25.839292 -146.550949 244 38110ft 436kts
01-Nov-18 15:05 25.786297 -146.672145 244 38111ft 435kts
01-Nov-18 15:06 25.733304 -146.792878 244 38110ft 435kts
01-Nov-18 15:07 25.680116 -146.913800 244 38110ft 435kts
01-Nov-18 15:08 25.627158 -147.033905 244 38109ft 434kts
01-Nov-18 15:09 25.574034 -147.153994 244 38108ft 433kts
01-Nov-18 15:10 25.520911 -147.273765 244 38110ft 433kts
01-Nov-18 15:11 25.467787 -147.393242 244 38109ft 432kts
01-Nov-18 15:12 25.414599 -147.512562 244 38102ft 432kts
01-Nov-18 15:13 25.361362 -147.631627 244 38095ft 432kts
01-Nov-18 15:14 25.307943 -147.750819 244 38087ft 432kts
01-Nov-18 15:15 25.254466 -147.869792 244 38103ft 431kts
01-Nov-18 15:16 25.201038 -147.988405 244 38102ft 431kts
01-Nov-18 15:17 25.147525 -148.106791 244 38108ft 431kts
01-Nov-18 15:18 25.094020 -148.224792 244 38106ft 430kts
01-Nov-18 15:19 25.040434 -148.342847 244 38095ft 430kts
01-Nov-18 15:20 24.986697 -148.460815 244 38081ft 430kts
01-Nov-18 15:21 24.932976 -148.578452 244 38066ft 430kts
01-Nov-18 15:22 24.879119 -148.696045 244 38090ft 429kts
01-Nov-18 15:23 24.825207 -148.813536 244 38069ft 429kts
01-Nov-18 15:24 24.771294 -148.930600 244 38050ft 430kts
01-Nov-18 15:25 24.717017 -149.048310 244 38042ft 430kts
01-Nov-18 15:26 24.662774 -149.165606 244 38032ft 430kts
01-Nov-18 15:27 24.608616 -149.282415 244 38055ft 429kts
01-Nov-18 15:28 24.554269 -149.399276 244 38045ft 430kts
01-Nov-18 15:29 24.499686 -149.516394 244 38064ft 429kts
01-Nov-18 15:30 24.445224 -149.632976 244 38083ft 429kts
01-Nov-18 15:31 24.390828 -149.749087 244 38077ft 429kts
01-Nov-18 15:32 24.336123 -149.865549 245 38108ft 428kts
01-Nov-18 15:33 24.281454 -149.981701 245 38107ft 429kts
01-Nov-18 15:33 24.235713 -150.078694 245 38106ft 429kts
01-Nov-18 15:35 24.171738 -150.213875 245 38107ft 429kts
01-Nov-18 15:36 24.116753 -150.329834 245 38104ft 429kts
01-Nov-18 15:37 24.061437 -150.446255 245 38105ft 429kts
01-Nov-18 15:37 24.015413 -150.542800 245 38106ft 430kts
01-Nov-18 15:39 23.950773 -150.678130 245 38107ft 430kts
01-Nov-18 15:40 23.895402 -150.793823 245 38099ft 430kts
01-Nov-18 15:41 23.839932 -150.909317 245 38091ft 430kts
01-Nov-18 15:41 23.793435 -151.005919 245 38104ft 430kts
01-Nov-18 15:42 23.737725 -151.121498 245 38100ft 430kts
01-Nov-18 15:44 23.672736 -151.255932 245 38103ft 430kts
01-Nov-18 15:44 23.626014 -151.352310 245 38103ft 430kts
01-Nov-18 15:45 23.570121 -151.467398 245 38103ft 431kts
01-Nov-18 15:46 23.513952 -151.582816 245 38103ft 431kts
01-Nov-18 15:47 23.457618 -151.698248 245 38103ft 431kts
01-Nov-18 15:48 23.401284 -151.813443 245 38104ft 431kts
01-Nov-18 15:49 23.344785 -151.928700 245 38103ft 431kts
01-Nov-18 15:50 23.288233 -152.043794 245 38105ft 431kts
01-Nov-18 15:51 23.231519 -152.158882 245 38106ft 431kts
01-Nov-18 15:52 23.174973 -152.273432 245 38103ft 431kts
01-Nov-18 15:53 23.118062 -152.388439 245 38099ft 431kts
01-Nov-18 15:54 23.061289 -152.502915 246 38103ft 431kts
01-Nov-18 15:55 23.004420 -152.617227 245 38097ft 431kts
01-Nov-18 15:56 22.946943 -152.731615 245 38098ft 431kts
01-Nov-18 15:57 22.889599 -152.845691 245 38099ft 431kts
01-Nov-18 15:58 22.831942 -152.960083 245 38104ft 431kts
01-Nov-18 15:59 22.774465 -153.073902 245 38093ft 431kts
01-Nov-18 16:00 22.716600 -153.188176 245 38094ft 431kts
01-Nov-18 16:01 22.658781 -153.302199 245 38092ft 432kts
01-Nov-18 16:02 22.600975 -153.415846 245 38088ft 432kts
01-Nov-18 16:03 22.542817 -153.529939 245 38105ft 432kts
01-Nov-18 16:04 22.484764 -153.643620 245 38089ft 432kts
01-Nov-18 16:05 22.426533 -153.757425 245 38103ft 433kts
01-Nov-18 16:06 22.369703 -153.871912 252 38102ft 428kts
01-Nov-18 16:07 22.350426 -153.996522 267 38097ft 421kts
01-Nov-18 16:08 22.336261 -154.122699 266 38057ft 422kts
01-Nov-18 16:09 22.322199 -154.248410 266 38056ft 422kts
01-Nov-18 16:10 22.307861 -154.374358 266 38055ft 422kts
01-Nov-18 16:11 22.293421 -154.500219 266 38052ft 422kts
01-Nov-18 16:12 22.278965 -154.626083 266 38052ft 423kts
01-Nov-18 16:13 22.264315 -154.751928 266 38049ft 423kts
01-Nov-18 16:14 22.249612 -154.878081 266 38044ft 423kts
01-Nov-18 16:15 22.234758 -155.004468 266 38019ft 425kts
01-Nov-18 16:16 22.219786 -155.130881 266 38017ft 425kts
01-Nov-18 16:17 22.204672 -155.257796 267 38022ft 426kts
01-Nov-18 16:18 22.189234 -155.386651 269 38031ft 444kts
01-Nov-18 16:19 22.173031 -155.520407 269 38028ft 449kts
01-Nov-18 16:20 22.156765 -155.653968 269 38082ft 449kts
01-Nov-18 16:21 22.140445 -155.787342 269 38147ft 449kts
01-Nov-18 16:22 22.123993 -155.920692 269 38140ft 448kts
01-Nov-18 16:23 22.107415 -156.054097 269 38134ft 448kts
01-Nov-18 16:24 22.090698 -156.187630 268 38050ft 450kts
01-Nov-18 16:25 22.073933 -156.321227 269 38048ft 449kts
01-Nov-18 16:26 22.056960 -156.454785 268 38040ft 450kts
01-Nov-18 16:27 22.039936 -156.588351 268 38049ft 450kts
01-Nov-18 16:28 22.022798 -156.721852 268 38067ft 450kts
01-Nov-18 16:29 22.005491 -156.855725 268 38053ft 451kts
01-Nov-18 16:30 21.988061 -156.989621 268 38089ft 451kts
01-Nov-18 16:31 21.970604 -157.123209 268 38092ft 451kts
01-Nov-18 16:32 21.952939 -157.257084 268 38089ft 451kts
01-Nov-18 16:33 21.935227 -157.390562 268 38087ft 451kts
01-Nov-18 16:34 21.917407 -157.524475 268 38075ft 451kts
01-Nov-18 16:35 21.899352 -157.658284 268 38044ft 449kts
01-Nov-18 16:37 21.881477 -157.790989 268 37838ft 447kts
01-Nov-18 16:38 21.863389 -157.924311 267 36236ft 453kts
01-Nov-18 16:39 21.844798 -158.059711 267 33044ft 461kts
01-Nov-18 16:40 21.825836 -158.198189 266 29302ft 474kts
01-Nov-18 16:41 21.806003 -158.340236 265 24900ft 485kts
01-Nov-18 16:42 21.786140 -158.483245 264 20666ft 479kts
01-Nov-18 16:43 21.766847 -158.620429 263 16955ft 451kts
01-Nov-18 16:44 21.748349 -158.751314 262 13142ft 434kts
01-Nov-18 16:45 21.730637 -158.876246 261 10235ft 412kts
01-Nov-18 16:46 21.713316 -158.997611 261 9730ft 409kts
01-Nov-18 16:47 21.697005 -159.111348 261 9225ft 345kts
01-Nov-18 16:48 21.710001 -159.200405 303 8718ft 297kts
01-Nov-18 16:49 21.773442 -159.233106 18 8240ft 286kts
01-Nov-18 16:50 21.848063 -159.206698 18 7642ft 283kts
01-Nov-18 16:51 21.922435 -159.182066 18 6010ft 274kts
01-Nov-18 16:52 21.994333 -159.158061 18 4361ft 267kts
01-Nov-18 16:53 22.058827 -159.148838 326 3843ft 214kts
01-Nov-18 16:54 22.097219 -159.195941 288 2837ft 202kts
01-Nov-18 16:55 22.072985 -159.241260 223 2124ft 171kts
01-Nov-18 16:56 22.043335 -159.273252 224 1891ft 145kts
01-Nov-18 16:57 22.016621 -159.301901 225 1045ft 134kts
01-Nov-18 16:58 21.998019 -159.334606 268 1013ft 131kts
01-Nov-18 16:59 21.984417 -159.369365 223 1004ft 135kts
01-Nov-18 17:00 21.954618 -159.378401 131 1018ft 124kts
01-Nov-18 17:01 21.969306 -159.352774 44 978ft 121kts
01-Nov-18 17:02 21.995845 -159.353566 308 1016ft 125kts
01-Nov-18 17:03 21.976874 -159.384016 208 978ft 135kts
01-Nov-18 17:04 21.963879 -159.359876 59 448ft 113kts
01-Nov-18 17:05 21.983704 -159.337271 44 167ft 44kts
01-Nov-18 17:06 21.985794 -159.336630 223 167ft 13kts
01-Nov-18 17:07 21.982987 -159.339626 224 167ft 15kts
01-Nov-18 17:08 21.982089 -159.341732 320 167ft 3kts
01-Nov-18 17:09 21.981881 -159.341972 221 167ft 2kts
01-Nov-18 17:10 21.981807 -159.341882 90 167ft 0kts
01-Nov-18 17:11 21.981807 -159.341882 90 167ft 0kts
01-Nov-18 17:12 21.981807 -159.341882 90 167ft 0kts
01-Nov-18 17:13 21.981807 -159.341882 90 167ft 0kts
01-Nov-18 17:14 21.981807 -159.341882 90 167ft 0kts
01-Nov-18 17:15 21.981807 -159.341882 90 167ft 0kts
01-Nov-18 17:16 21.981807 -159.341882 90 167ft 0kts
01-Nov-18 17:17 21.981807 -159.341882 90 167ft 0kts
01-Nov-18 17:18 21.981807 -159.341882 90 167ft 0kts
01-Nov-18 17:19 21.981807 -159.341882 90 167ft 0kts
01-Nov-18 17:20 21.981807 -159.341882 90 167ft 0kts

Navigation Log

Ident Type
Flight plan parsing failed, navigation log unavailable